createdAt,value
2024-04-05T00:00:44.125Z,505.00
2024-04-05T00:01:44.190Z,505.00
2024-04-05T00:02:44.233Z,504.00
2024-04-05T00:03:44.356Z,505.00
2024-04-05T00:04:44.412Z,505.00
2024-04-05T00:05:44.451Z,506.00
2024-04-05T00:06:44.528Z,507.00
2024-04-05T00:07:44.597Z,507.00
2024-04-05T00:08:44.667Z,507.00
2024-04-05T00:09:44.747Z,507.00
2024-04-05T00:10:45.061Z,505.00
2024-04-05T00:11:44.867Z,505.00
2024-04-05T00:12:48.063Z,507.00
2024-04-05T00:13:45.957Z,511.00
2024-04-05T00:14:44.946Z,510.00
2024-04-05T00:15:44.948Z,506.00
2024-04-05T00:16:44.945Z,506.00
2024-04-05T00:17:44.952Z,505.00
2024-04-05T00:18:44.966Z,504.00
2024-04-05T00:19:44.963Z,505.00
2024-04-05T00:20:45.099Z,504.00
2024-04-05T00:21:44.926Z,504.00
2024-04-05T00:22:45.186Z,502.00
2024-04-05T00:23:45.098Z,503.00
2024-04-05T00:24:45.156Z,502.00
2024-04-05T00:25:45.208Z,503.00
2024-04-05T00:26:45.278Z,505.00
2024-04-05T00:27:45.382Z,504.00
2024-04-05T00:28:45.498Z,503.00
2024-04-05T00:29:45.503Z,503.00
2024-04-05T00:30:45.557Z,501.00
2024-04-05T00:31:45.673Z,501.00
2024-04-05T00:32:45.691Z,503.00
2024-04-05T00:33:45.780Z,501.00
2024-04-05T00:34:45.827Z,502.00
2024-04-05T00:35:45.907Z,502.00
2024-04-05T00:36:45.955Z,501.00
2024-04-05T00:37:46.007Z,499.00
2024-04-05T00:38:46.124Z,496.00
2024-04-05T00:39:46.182Z,495.00
2024-04-05T00:40:46.244Z,495.00
2024-04-05T00:41:46.295Z,492.00
2024-04-05T00:42:46.413Z,490.00
2024-04-05T00:43:46.460Z,491.00
2024-04-05T00:44:46.519Z,491.00
2024-04-05T00:45:46.605Z,494.00
2024-04-05T00:46:46.638Z,497.00
2024-04-05T00:47:46.706Z,498.00
2024-04-05T00:48:46.814Z,500.00
2024-04-05T00:49:46.817Z,500.00
2024-04-05T00:50:46.864Z,499.00
2024-04-05T00:51:47.009Z,499.00
2024-04-05T00:52:47.039Z,496.00
2024-04-05T00:53:47.112Z,496.00
2024-04-05T00:54:47.156Z,496.00
2024-04-05T00:55:47.214Z,497.00
2024-04-05T00:56:47.378Z,497.00
2024-04-05T00:57:47.352Z,496.00
2024-04-05T00:58:47.508Z,496.00
2024-04-05T00:59:47.501Z,496.00
2024-04-05T01:00:47.592Z,497.00
2024-04-05T01:01:47.610Z,499.00
2024-04-05T01:02:47.664Z,498.00
2024-04-05T01:03:47.733Z,499.00
2024-04-05T01:04:47.787Z,496.00
2024-04-05T01:05:47.838Z,495.00
2024-04-05T01:06:47.902Z,497.00
2024-04-05T01:07:47.898Z,496.00
2024-04-05T01:08:48.016Z,499.00
2024-04-05T01:09:48.081Z,499.00
2024-04-05T01:10:48.191Z,501.00
2024-04-05T01:11:48.190Z,503.00
2024-04-05T01:12:48.250Z,503.00
2024-04-05T01:13:48.291Z,504.00
2024-04-05T01:14:48.357Z,504.00
2024-04-05T01:15:48.376Z,502.00
2024-04-05T01:16:48.441Z,502.00
2024-04-05T01:17:48.537Z,501.00
2024-04-05T01:18:48.587Z,500.00
2024-04-05T01:19:48.606Z,497.00
2024-04-05T01:20:48.691Z,495.00
2024-04-05T01:21:48.718Z,496.00
2024-04-05T01:22:48.737Z,498.00
2024-04-05T01:23:48.788Z,498.00
2024-04-05T01:24:48.832Z,498.00
2024-04-05T01:25:48.907Z,497.00
2024-04-05T01:26:48.960Z,496.00
2024-04-05T01:27:49.027Z,495.00
2024-04-05T01:28:49.073Z,493.00
2024-04-05T01:29:49.112Z,496.00
2024-04-05T01:30:49.183Z,497.00
2024-04-05T01:31:49.276Z,501.00
2024-04-05T01:32:49.291Z,499.00
2024-04-05T01:33:49.373Z,502.00
2024-04-05T01:34:49.418Z,500.00
2024-04-05T01:35:49.429Z,497.00
2024-04-05T01:36:49.529Z,496.00
2024-04-05T01:37:49.515Z,494.00
2024-04-05T01:38:49.548Z,495.00
2024-04-05T01:39:49.615Z,494.00
2024-04-05T01:40:49.674Z,493.00
2024-04-05T01:41:49.709Z,492.00
2024-04-05T01:42:49.775Z,493.00
2024-04-05T01:43:49.784Z,497.00
2024-04-05T01:44:49.826Z,498.00
2024-04-05T01:45:49.913Z,499.00
2024-04-05T01:46:49.972Z,502.00
2024-04-05T01:47:49.980Z,500.00
2024-04-05T01:48:50.055Z,502.00
2024-04-05T01:49:50.170Z,500.00
2024-04-05T01:50:50.172Z,501.00
2024-04-05T01:51:50.243Z,503.00
2024-04-05T01:52:50.302Z,505.00
2024-04-05T01:53:50.333Z,502.00
2024-04-05T01:54:50.372Z,504.00
2024-04-05T01:55:50.409Z,503.00
2024-04-05T01:56:50.463Z,502.00
2024-04-05T01:57:50.511Z,504.00
2024-04-05T01:58:50.607Z,504.00
2024-04-05T01:59:50.626Z,504.00
2024-04-05T02:00:50.679Z,502.00
2024-04-05T02:01:52.953Z,502.00
2024-04-05T02:02:50.702Z,502.00
2024-04-05T02:03:50.765Z,500.00
2024-04-05T02:04:50.731Z,500.00
2024-04-05T02:05:50.754Z,501.00
2024-04-05T02:06:50.729Z,499.00
2024-04-05T02:07:50.744Z,497.00
2024-04-05T02:08:50.741Z,497.00
2024-04-05T02:09:50.715Z,500.00
2024-04-05T02:10:50.781Z,500.00
2024-04-05T02:11:50.736Z,497.00
2024-04-05T02:12:50.764Z,495.00
2024-04-05T02:13:50.742Z,495.00
2024-04-05T02:14:50.744Z,497.00
2024-04-05T02:15:50.760Z,498.00
2024-04-05T02:16:50.760Z,498.00
2024-04-05T02:17:50.740Z,498.00
2024-04-05T02:18:50.729Z,497.00
2024-04-05T02:19:50.742Z,495.00
2024-04-05T02:20:50.747Z,494.00
2024-04-05T02:21:50.797Z,492.00
2024-04-05T02:22:51.477Z,491.00
2024-04-05T02:23:50.772Z,490.00
2024-04-05T02:24:50.718Z,489.00
2024-04-05T02:25:50.786Z,492.00
2024-04-05T02:26:50.765Z,496.00
2024-04-05T02:27:50.745Z,495.00
2024-04-05T02:28:50.775Z,496.00
2024-04-05T02:29:50.757Z,494.00
2024-04-05T02:30:50.755Z,492.00
2024-04-05T02:31:50.759Z,492.00
2024-04-05T02:32:50.774Z,492.00
2024-04-05T02:33:50.771Z,493.00
2024-04-05T02:34:50.742Z,493.00
2024-04-05T02:35:50.753Z,493.00
2024-04-05T02:36:50.735Z,490.00
2024-04-05T02:37:50.772Z,489.00
2024-04-05T02:38:50.774Z,489.00
2024-04-05T02:39:50.768Z,492.00
2024-04-05T02:40:50.779Z,493.00
2024-04-05T02:41:50.736Z,493.00
2024-04-05T02:42:50.728Z,492.00
2024-04-05T02:43:50.816Z,494.00
2024-04-05T02:44:50.753Z,493.00
2024-04-05T02:45:50.752Z,493.00
2024-04-05T02:46:50.767Z,492.00
2024-04-05T02:47:50.768Z,492.00
2024-04-05T02:48:50.770Z,492.00
2024-04-05T02:49:50.780Z,491.00
2024-04-05T02:50:50.790Z,490.00
2024-04-05T02:51:50.797Z,489.00
2024-04-05T02:52:50.781Z,489.00
2024-04-05T02:53:50.812Z,489.00
2024-04-05T02:54:50.777Z,489.00
2024-04-05T02:55:50.786Z,490.00
2024-04-05T02:56:50.778Z,491.00
2024-04-05T02:57:50.812Z,489.00
2024-04-05T02:58:50.799Z,488.00
2024-04-05T02:59:50.820Z,491.00
2024-04-05T03:00:50.825Z,491.00
2024-04-05T03:01:50.812Z,493.00
2024-04-05T03:02:50.769Z,493.00
2024-04-05T03:03:50.774Z,492.00
2024-04-05T03:04:50.838Z,492.00
2024-04-05T03:05:50.782Z,494.00
2024-04-05T03:06:50.796Z,495.00
2024-04-05T03:07:50.832Z,491.00
2024-04-05T03:08:50.806Z,490.00
2024-04-05T03:09:50.812Z,491.00
2024-04-05T03:10:50.829Z,488.00
2024-04-05T03:11:50.822Z,487.00
2024-04-05T03:12:50.796Z,487.00
2024-04-05T03:13:50.897Z,487.00
2024-04-05T03:14:50.803Z,486.00
2024-04-05T03:15:50.811Z,487.00
2024-04-05T03:16:50.826Z,492.00
2024-04-05T03:17:50.794Z,491.00
2024-04-05T03:18:50.829Z,489.00
2024-04-05T03:19:50.781Z,489.00
2024-04-05T03:20:50.782Z,489.00
2024-04-05T03:21:50.799Z,486.00
2024-04-05T03:22:50.859Z,485.00
2024-04-05T03:23:50.818Z,485.00
2024-04-05T03:24:50.813Z,484.00
2024-04-05T03:25:50.822Z,485.00
2024-04-05T03:26:50.832Z,483.00
2024-04-05T03:27:50.831Z,484.00
2024-04-05T03:28:50.837Z,484.00
2024-04-05T03:29:50.892Z,486.00
2024-04-05T03:30:50.824Z,485.00
2024-04-05T03:31:50.820Z,485.00
2024-04-05T03:32:50.841Z,486.00
2024-04-05T03:33:50.832Z,488.00
2024-04-05T03:34:50.844Z,487.00
2024-04-05T03:35:50.841Z,486.00
2024-04-05T03:36:50.855Z,487.00
2024-04-05T03:37:50.862Z,486.00
2024-04-05T03:38:50.876Z,487.00
2024-04-05T03:39:50.812Z,486.00
2024-04-05T03:40:50.819Z,486.00
2024-04-05T03:41:50.826Z,488.00
2024-04-05T03:42:50.845Z,489.00
2024-04-05T03:43:50.855Z,487.00
2024-04-05T03:44:50.847Z,486.00
2024-04-05T03:45:50.834Z,484.00
2024-04-05T03:46:50.863Z,483.00
2024-04-05T03:47:50.824Z,483.00
2024-04-05T03:48:50.838Z,484.00
2024-04-05T03:49:50.843Z,486.00
2024-04-05T03:50:50.848Z,486.00
2024-04-05T03:51:50.847Z,489.00
2024-04-05T03:52:50.861Z,492.00
2024-04-05T03:53:50.869Z,492.00
2024-04-05T03:54:50.933Z,491.00
2024-04-05T03:55:50.836Z,492.00
2024-04-05T03:56:52.103Z,491.00
2024-04-05T03:57:50.846Z,490.00
2024-04-05T03:58:50.841Z,491.00
2024-04-05T03:59:50.846Z,492.00
2024-04-05T04:00:50.859Z,490.00
2024-04-05T04:01:50.909Z,489.00
2024-04-05T04:02:50.878Z,488.00
2024-04-05T04:03:50.868Z,485.00
2024-04-05T04:04:50.884Z,487.00
2024-04-05T04:05:50.844Z,488.00
2024-04-05T04:06:50.860Z,491.00
2024-04-05T04:07:52.517Z,491.00
2024-04-05T04:08:50.884Z,491.00
2024-04-05T04:09:50.883Z,495.00
2024-04-05T04:10:50.895Z,495.00
2024-04-05T04:11:50.879Z,496.00
2024-04-05T04:12:50.905Z,498.00
2024-04-05T04:13:58.062Z,503.00
2024-04-05T04:14:58.076Z,503.00
2024-04-05T04:15:58.071Z,505.00
2024-04-05T04:16:58.086Z,507.00
2024-04-05T04:17:58.085Z,507.00
2024-04-05T04:18:58.109Z,507.00
2024-04-05T04:19:58.101Z,507.00
2024-04-05T04:20:58.122Z,504.00
2024-04-05T04:21:58.139Z,503.00
2024-04-05T04:22:58.076Z,505.00
2024-04-05T04:23:58.070Z,505.00
2024-04-05T04:24:58.076Z,509.00
2024-04-05T04:25:58.082Z,510.00
2024-04-05T04:26:58.160Z,512.00
2024-04-05T04:27:58.105Z,511.00
2024-04-05T04:28:58.085Z,512.00
2024-04-05T04:29:58.115Z,514.00
2024-04-05T04:31:05.284Z,512.00
2024-04-05T04:32:05.298Z,517.00
2024-04-05T04:33:05.292Z,520.00
2024-04-05T04:34:05.269Z,518.00
2024-04-05T04:35:05.308Z,517.00
2024-04-05T04:36:05.284Z,517.00
2024-04-05T04:37:05.291Z,516.00
2024-04-05T04:38:05.293Z,519.00
2024-04-05T04:39:05.301Z,521.00
2024-04-05T04:40:05.303Z,520.00
2024-04-05T04:41:05.301Z,519.00
2024-04-05T04:42:05.317Z,519.00
2024-04-05T04:43:07.807Z,520.00
2024-04-05T04:44:05.334Z,519.00
2024-04-05T04:45:05.278Z,522.00
2024-04-05T04:46:05.282Z,522.00
2024-04-05T04:47:05.293Z,524.00
2024-04-05T04:48:05.311Z,524.00
2024-04-05T04:49:05.307Z,524.00
2024-04-05T04:50:05.310Z,523.00
2024-04-05T04:51:05.290Z,524.00
2024-04-05T04:52:05.281Z,523.00
2024-04-05T04:53:05.324Z,520.00
2024-04-05T04:54:05.288Z,517.00
2024-04-05T04:55:05.304Z,516.00
2024-04-05T04:56:05.312Z,519.00
2024-04-05T04:57:05.323Z,520.00
2024-04-05T04:58:05.335Z,518.00
2024-04-05T04:59:05.329Z,517.00
2024-04-05T05:00:05.363Z,519.00
2024-04-05T05:01:05.344Z,518.00
2024-04-05T05:02:05.408Z,518.00
2024-04-05T05:03:05.296Z,519.00
2024-04-05T05:04:05.338Z,515.00
2024-04-05T05:05:05.304Z,517.00
2024-04-05T05:06:05.312Z,518.00
2024-04-05T05:07:05.322Z,518.00
2024-04-05T05:08:05.325Z,519.00
2024-04-05T05:09:05.329Z,518.00
2024-04-05T05:10:05.327Z,516.00
2024-04-05T05:11:05.348Z,517.00
2024-04-05T05:12:05.360Z,520.00
2024-04-05T05:13:08.689Z,522.00
2024-04-05T05:14:05.376Z,520.00
2024-04-05T05:15:05.329Z,519.00
2024-04-05T05:16:05.352Z,516.00
2024-04-05T05:17:05.352Z,515.00
2024-04-05T05:18:05.372Z,517.00
2024-04-05T05:19:05.377Z,516.00
2024-04-05T05:20:05.377Z,516.00
2024-04-05T05:21:05.378Z,516.00
2024-04-05T05:22:05.414Z,518.00
2024-04-05T05:23:05.396Z,517.00
2024-04-05T05:24:05.409Z,520.00
2024-04-05T05:25:05.429Z,521.00
2024-04-05T05:26:05.347Z,524.00
2024-04-05T05:27:05.376Z,524.00
2024-04-05T05:28:05.414Z,524.00
2024-04-05T05:29:05.373Z,522.00
2024-04-05T05:30:05.379Z,522.00
2024-04-05T05:31:05.385Z,524.00
2024-04-05T05:32:05.383Z,527.00
2024-04-05T05:33:05.400Z,530.00
2024-04-05T05:34:05.398Z,535.00
2024-04-05T05:35:05.372Z,537.00
2024-04-05T05:36:05.385Z,538.00
2024-04-05T05:37:05.371Z,563.00
2024-04-05T05:38:05.410Z,574.00
2024-04-05T05:39:05.395Z,580.00
2024-04-05T05:40:05.413Z,600.00
2024-04-05T05:41:05.425Z,616.00
2024-04-05T05:42:05.424Z,648.00
2024-04-05T05:43:05.935Z,702.00
2024-04-05T05:44:05.995Z,703.00
2024-04-05T05:45:05.983Z,718.00
2024-04-05T05:46:05.458Z,778.00
2024-04-05T05:47:05.448Z,787.00
2024-04-05T05:48:05.402Z,799.00
2024-04-05T05:49:05.476Z,847.00
2024-04-05T05:50:05.494Z,884.00
2024-04-05T05:51:05.480Z,898.00
2024-04-05T05:52:05.422Z,916.00
2024-04-05T05:53:05.406Z,929.00
2024-04-05T05:54:05.520Z,941.00
2024-04-05T05:55:05.955Z,948.00
2024-04-05T05:56:05.450Z,965.00
2024-04-05T05:57:05.581Z,975.00
2024-04-05T05:58:05.544Z,990.00
2024-04-05T05:59:05.564Z,1014.00
2024-04-05T06:00:05.595Z,1023.00
2024-04-05T06:01:06.471Z,1031.00
2024-04-05T06:02:09.172Z,1036.00
2024-04-05T06:03:05.707Z,1042.00
2024-04-05T06:04:06.031Z,1049.00
2024-04-05T06:05:05.681Z,1056.00
2024-04-05T06:06:05.629Z,1061.00
2024-04-05T06:07:05.629Z,1064.00
2024-04-05T06:08:05.631Z,1069.00
2024-04-05T06:09:05.969Z,1137.00
2024-04-05T06:10:05.644Z,1115.00
2024-04-05T06:11:05.646Z,1114.00
2024-04-05T06:12:05.619Z,1126.00
2024-04-05T06:13:05.623Z,1137.00
2024-04-05T06:14:05.639Z,1138.00
2024-04-05T06:15:05.995Z,1132.00
2024-04-05T06:16:05.657Z,1133.00
2024-04-05T06:17:05.669Z,1138.00
2024-04-05T06:18:05.665Z,1146.00
2024-04-05T06:19:05.671Z,1162.00
2024-04-05T06:20:06.000Z,1193.00
2024-04-05T06:21:05.623Z,1198.00
2024-04-05T06:22:05.625Z,1188.00
2024-04-05T06:23:05.636Z,1199.00
2024-04-05T06:24:05.640Z,1207.00
2024-04-05T06:25:05.954Z,1213.00
2024-04-05T06:26:05.659Z,1213.00
2024-04-05T06:27:05.967Z,1203.00
2024-04-05T06:28:05.672Z,1199.00
2024-04-05T06:29:05.720Z,1190.00
2024-04-05T06:30:05.793Z,1193.00
2024-04-05T06:31:05.700Z,1200.00
2024-04-05T06:32:05.962Z,1219.00
2024-04-05T06:33:05.768Z,1233.00
2024-04-05T06:34:05.677Z,1235.00
2024-04-05T06:35:09.096Z,1239.00
2024-04-05T06:36:05.703Z,1256.00
2024-04-05T06:37:06.444Z,1252.00
2024-04-05T06:38:05.700Z,1130.00
2024-04-05T06:39:05.922Z,1008.00
2024-04-05T06:40:05.749Z,941.00
2024-04-05T06:41:05.655Z,877.00
2024-04-05T06:42:05.670Z,877.00
2024-04-05T06:43:05.664Z,862.00
2024-04-05T06:44:05.786Z,883.00
2024-04-05T06:45:05.712Z,944.00
2024-04-05T06:46:05.787Z,957.00
2024-04-05T06:47:05.809Z,967.00
2024-04-05T06:48:05.691Z,965.00
2024-04-05T06:49:05.673Z,962.00
2024-04-05T06:50:05.989Z,958.00
2024-04-05T06:51:06.040Z,960.00
2024-04-05T06:52:05.693Z,963.00
2024-04-05T06:53:06.004Z,965.00
2024-04-05T06:54:05.689Z,955.00
2024-04-05T06:55:05.723Z,863.00
2024-04-05T06:56:06.487Z,845.00
2024-04-05T06:57:06.573Z,822.00
2024-04-05T06:58:05.984Z,799.00
2024-04-05T06:59:05.692Z,780.00
2024-04-05T07:00:05.962Z,756.00
2024-04-05T07:01:05.717Z,740.00
2024-04-05T07:02:06.425Z,743.00
2024-04-05T07:03:06.380Z,743.00
2024-04-05T07:04:05.749Z,737.00
2024-04-05T07:05:05.786Z,745.00
2024-04-05T07:06:05.920Z,746.00
2024-04-05T07:07:05.924Z,747.00
2024-04-05T07:08:06.052Z,745.00
2024-04-05T07:09:06.014Z,727.00
2024-04-05T07:10:06.046Z,742.00
2024-04-05T07:11:06.144Z,749.00
2024-04-05T07:12:06.146Z,732.00
2024-04-05T07:13:07.058Z,712.00
2024-04-05T07:14:06.203Z,693.00
2024-04-05T07:15:06.303Z,689.00
2024-04-05T07:16:06.460Z,683.00
2024-04-05T07:17:06.482Z,678.00
2024-04-05T07:18:06.476Z,671.00
2024-04-05T07:19:09.483Z,667.00
2024-04-05T07:20:06.502Z,669.00
2024-04-05T07:21:06.480Z,668.00
2024-04-05T07:22:07.034Z,673.00
2024-04-05T07:23:06.540Z,686.00
2024-04-05T07:24:06.535Z,696.00
2024-04-05T07:25:07.501Z,707.00
2024-04-05T07:26:06.544Z,712.00
2024-04-05T07:27:06.998Z,721.00
2024-04-05T07:28:06.503Z,725.00
2024-04-05T07:29:06.492Z,728.00
2024-04-05T07:30:07.503Z,733.00
2024-04-05T07:31:06.988Z,732.00
2024-04-05T07:32:06.554Z,734.00
2024-04-05T07:33:06.525Z,740.00
2024-04-05T07:34:06.490Z,742.00
2024-04-05T07:35:06.479Z,751.00
2024-04-05T07:36:07.007Z,750.00
2024-04-05T07:37:06.526Z,756.00
2024-04-05T07:38:06.976Z,786.00
2024-04-05T07:39:06.548Z,761.00
2024-04-05T07:40:07.171Z,747.00
2024-04-05T07:41:06.639Z,747.00
2024-04-05T07:42:06.538Z,746.00
2024-04-05T07:43:07.000Z,701.00
2024-04-05T07:44:06.561Z,715.00
2024-04-05T07:45:07.462Z,705.00
2024-04-05T07:46:06.568Z,696.00
2024-04-05T07:47:06.534Z,704.00
2024-04-05T07:48:07.003Z,731.00
2024-04-05T07:49:06.513Z,740.00
2024-04-05T07:50:06.574Z,749.00
2024-04-05T07:51:07.049Z,758.00
2024-04-05T07:52:07.687Z,770.00
2024-04-05T07:53:06.621Z,781.00
2024-04-05T07:54:06.601Z,789.00
2024-04-05T07:55:06.552Z,813.00
2024-04-05T07:56:07.200Z,820.00
2024-04-05T07:57:10.853Z,822.00
2024-04-05T07:58:08.500Z,826.00
2024-04-05T07:59:06.560Z,828.00
2024-04-05T08:00:08.736Z,829.00
2024-04-05T08:01:07.024Z,836.00
2024-04-05T08:02:06.610Z,842.00
2024-04-05T08:03:06.547Z,848.00
2024-04-05T08:04:06.584Z,855.00
2024-04-05T08:05:07.033Z,865.00
2024-04-05T08:06:06.590Z,873.00
2024-04-05T08:07:07.526Z,877.00
2024-04-05T08:08:06.610Z,878.00
2024-04-05T08:09:06.663Z,880.00
2024-04-05T08:10:06.583Z,883.00
2024-04-05T08:11:06.658Z,885.00
2024-04-05T08:12:10.128Z,888.00
2024-04-05T08:13:06.607Z,893.00
2024-04-05T08:14:06.604Z,897.00
2024-04-05T08:15:06.982Z,900.00
2024-04-05T08:16:06.690Z,905.00
2024-04-05T08:17:06.601Z,908.00
2024-04-05T08:18:06.570Z,913.00
2024-04-05T08:19:06.612Z,916.00
2024-04-05T08:20:07.110Z,924.00
2024-04-05T08:21:06.579Z,927.00
2024-04-05T08:22:06.597Z,931.00
2024-04-05T08:23:06.609Z,930.00
2024-04-05T08:24:06.618Z,933.00
2024-04-05T08:25:07.087Z,935.00
2024-04-05T08:26:06.620Z,938.00
2024-04-05T08:27:06.656Z,946.00
2024-04-05T08:28:06.656Z,884.00
2024-04-05T08:29:06.691Z,932.00
2024-04-05T08:30:06.654Z,936.00
2024-04-05T08:31:07.005Z,846.00
2024-04-05T08:32:06.617Z,836.00
2024-04-05T08:33:06.613Z,825.00
2024-04-05T08:34:06.632Z,815.00
2024-04-05T08:35:06.627Z,814.00
2024-04-05T08:36:06.633Z,812.00
2024-04-05T08:37:06.657Z,806.00
2024-04-05T08:38:06.639Z,797.00
2024-04-05T08:39:06.613Z,782.00
2024-04-05T08:40:06.622Z,772.00
2024-04-05T08:41:07.029Z,754.00
2024-04-05T08:42:06.621Z,741.00
2024-04-05T08:43:06.613Z,736.00
2024-04-05T08:44:06.657Z,735.00
2024-04-05T08:45:06.654Z,731.00
2024-04-05T08:46:06.635Z,731.00
2024-04-05T08:47:06.660Z,729.00
2024-04-05T08:48:07.049Z,726.00
2024-04-05T08:49:06.638Z,725.00
2024-04-05T08:50:06.639Z,722.00
2024-04-05T08:51:07.030Z,715.00
2024-04-05T08:52:06.643Z,713.00
2024-04-05T08:53:06.657Z,709.00
2024-04-05T08:54:06.657Z,704.00
2024-04-05T08:55:06.661Z,702.00
2024-04-05T08:56:07.117Z,702.00
2024-04-05T08:57:06.626Z,705.00
2024-04-05T08:58:06.645Z,704.00
2024-04-05T08:59:06.657Z,703.00
2024-04-05T09:00:06.657Z,699.00
2024-04-05T09:01:07.058Z,696.00
2024-04-05T09:02:06.659Z,692.00
2024-04-05T09:03:06.719Z,687.00
2024-04-05T09:04:07.554Z,684.00
2024-04-05T09:05:06.702Z,681.00
2024-04-05T09:06:07.055Z,680.00
2024-04-05T09:07:06.633Z,682.00
2024-04-05T09:08:07.107Z,680.00
2024-04-05T09:09:06.711Z,680.00
2024-04-05T09:10:06.751Z,681.00
2024-04-05T09:11:07.827Z,678.00
2024-04-05T09:12:07.026Z,673.00
2024-04-05T09:13:06.844Z,669.00
2024-04-05T09:14:06.891Z,664.00
2024-04-05T09:15:06.953Z,661.00
2024-04-05T09:16:07.046Z,659.00
2024-04-05T09:17:07.121Z,658.00
2024-04-05T09:18:07.080Z,656.00
2024-04-05T09:19:07.083Z,652.00
2024-04-05T09:20:07.080Z,650.00
2024-04-05T09:21:07.142Z,647.00
2024-04-05T09:22:07.562Z,646.00
2024-04-05T09:23:07.194Z,643.00
2024-04-05T09:24:07.270Z,641.00
2024-04-05T09:25:07.269Z,637.00
2024-04-05T09:26:07.549Z,634.00
2024-04-05T09:27:07.394Z,631.00
2024-04-05T09:28:07.619Z,630.00
2024-04-05T09:29:07.459Z,626.00
2024-04-05T09:30:08.035Z,621.00
2024-04-05T09:31:07.505Z,616.00
2024-04-05T09:32:07.588Z,610.00
2024-04-05T09:33:08.109Z,608.00
2024-04-05T09:34:07.658Z,605.00
2024-04-05T09:35:07.695Z,604.00
2024-04-05T09:36:07.760Z,605.00
2024-04-05T09:37:07.815Z,610.00
2024-04-05T09:38:07.829Z,612.00
2024-04-05T09:39:08.035Z,618.00
2024-04-05T09:40:07.890Z,632.00
2024-04-05T09:41:07.945Z,642.00
2024-04-05T09:42:07.950Z,643.00
2024-04-05T09:43:08.006Z,644.00
2024-04-05T09:44:14.091Z,648.00
2024-04-05T09:45:09.053Z,647.00
2024-04-05T09:46:08.086Z,647.00
2024-04-05T09:47:08.034Z,647.00
2024-04-05T09:48:08.038Z,650.00
2024-04-05T09:49:08.044Z,650.00
2024-04-05T09:50:08.060Z,651.00
2024-04-05T09:51:08.629Z,653.00
2024-04-05T09:52:08.066Z,656.00
2024-04-05T09:53:08.062Z,657.00
2024-04-05T09:54:08.084Z,654.00
2024-04-05T09:55:08.037Z,654.00
2024-04-05T09:56:08.060Z,652.00
2024-04-05T09:57:08.049Z,649.00
2024-04-05T09:58:08.078Z,648.00
2024-04-05T09:59:08.064Z,647.00
2024-04-05T10:00:08.086Z,643.00
2024-04-05T10:01:08.606Z,641.00
2024-04-05T10:02:08.086Z,637.00
2024-04-05T10:03:09.058Z,637.00
2024-04-05T10:04:08.109Z,635.00
2024-04-05T10:05:08.156Z,636.00
2024-04-05T10:06:08.121Z,633.00
2024-04-05T10:07:08.076Z,630.00
2024-04-05T10:08:08.201Z,629.00
2024-04-05T10:09:08.155Z,630.00
2024-04-05T10:10:08.164Z,627.00
2024-04-05T10:11:08.217Z,663.00
2024-04-05T10:12:08.264Z,670.00
2024-04-05T10:13:08.212Z,650.00
2024-04-05T10:14:09.143Z,638.00
2024-04-05T10:15:08.283Z,636.00
2024-04-05T10:16:08.310Z,635.00
2024-04-05T10:17:08.612Z,631.00
2024-04-05T10:18:08.298Z,631.00
2024-04-05T10:19:08.327Z,626.00
2024-04-05T10:20:08.367Z,622.00
2024-04-05T10:21:08.372Z,618.00
2024-04-05T10:22:08.578Z,614.00
2024-04-05T10:23:08.358Z,614.00
2024-04-05T10:24:09.074Z,614.00
2024-04-05T10:25:09.061Z,612.00
2024-04-05T10:26:08.606Z,660.00
2024-04-05T10:27:08.368Z,671.00
2024-04-05T10:28:08.380Z,673.00
2024-04-05T10:29:08.380Z,713.00
2024-04-05T10:30:08.431Z,728.00
2024-04-05T10:31:08.435Z,763.00
2024-04-05T10:32:08.613Z,788.00
2024-04-05T10:33:08.452Z,802.00
2024-04-05T10:34:08.737Z,815.00
2024-04-05T10:35:10.186Z,823.00
2024-04-05T10:36:08.576Z,872.00
2024-04-05T10:37:08.539Z,826.00
2024-04-05T10:38:19.219Z,802.00
2024-04-05T10:39:09.587Z,794.00
2024-04-05T10:40:08.527Z,793.00
2024-04-05T10:41:08.569Z,788.00
2024-04-05T10:42:08.507Z,793.00
2024-04-05T10:43:08.532Z,801.00
2024-04-05T10:44:08.552Z,813.00
2024-04-05T10:45:08.535Z,807.00
2024-04-05T10:46:08.597Z,805.00
2024-04-05T10:47:08.596Z,807.00
2024-04-05T10:48:08.566Z,814.00
2024-04-05T10:49:08.568Z,826.00
2024-04-05T10:50:08.590Z,835.00
2024-04-05T10:51:08.535Z,846.00
2024-04-05T10:52:08.536Z,856.00
2024-04-05T10:53:08.524Z,860.00
2024-04-05T10:54:08.547Z,862.00
2024-04-05T10:55:08.555Z,867.00
2024-04-05T10:56:08.770Z,871.00
2024-04-05T10:57:08.576Z,877.00
2024-04-05T10:58:08.507Z,885.00
2024-04-05T10:59:08.597Z,893.00
2024-04-05T11:00:08.545Z,909.00
2024-04-05T11:01:08.610Z,908.00
2024-04-05T11:02:08.552Z,913.00
2024-04-05T11:03:08.559Z,922.00
2024-04-05T11:04:08.540Z,925.00
2024-04-05T11:05:08.589Z,927.00
2024-04-05T11:06:08.557Z,959.00
2024-04-05T11:07:08.585Z,963.00
2024-04-05T11:08:08.636Z,955.00
2024-04-05T11:09:08.598Z,949.00
2024-04-05T11:10:19.589Z,965.00
2024-04-05T11:11:09.599Z,972.00
2024-04-05T11:12:08.577Z,969.00
2024-04-05T11:13:08.569Z,980.00
2024-04-05T11:14:08.595Z,993.00
2024-04-05T11:15:08.590Z,989.00
2024-04-05T11:16:08.597Z,989.00
2024-04-05T11:17:08.677Z,999.00
2024-04-05T11:18:08.610Z,1011.00
2024-04-05T11:19:08.637Z,1005.00
2024-04-05T11:20:08.625Z,997.00
2024-04-05T11:21:08.630Z,979.00
2024-04-05T11:22:08.598Z,945.00
2024-04-05T11:23:08.595Z,940.00
2024-04-05T11:24:09.121Z,935.00
2024-04-05T11:25:08.662Z,931.00
2024-04-05T11:26:08.579Z,929.00
2024-04-05T11:27:08.636Z,924.00
2024-04-05T11:28:08.627Z,916.00
2024-04-05T11:29:08.638Z,911.00
2024-04-05T11:30:08.596Z,896.00
2024-04-05T11:31:08.605Z,887.00
2024-04-05T11:32:08.602Z,877.00
2024-04-05T11:33:08.615Z,867.00
2024-04-05T11:34:08.622Z,855.00
2024-04-05T11:35:08.636Z,849.00
2024-04-05T11:36:08.639Z,842.00
2024-04-05T11:37:08.628Z,832.00
2024-04-05T11:38:08.650Z,820.00
2024-04-05T11:39:08.609Z,805.00
2024-04-05T11:40:09.133Z,797.00
2024-04-05T11:41:08.703Z,791.00
2024-04-05T11:42:08.684Z,782.00
2024-04-05T11:43:08.715Z,775.00
2024-04-05T11:44:08.710Z,768.00
2024-04-05T11:45:08.735Z,756.00
2024-04-05T11:46:08.701Z,746.00
2024-04-05T11:47:08.691Z,742.00
2024-04-05T11:48:08.715Z,737.00
2024-04-05T11:49:08.763Z,725.00
2024-04-05T11:50:08.732Z,720.00
2024-04-05T11:51:08.693Z,714.00
2024-04-05T11:52:08.725Z,702.00
2024-04-05T11:53:08.742Z,694.00
2024-04-05T11:54:08.736Z,683.00
2024-04-05T11:55:08.830Z,679.00
2024-04-05T11:56:08.778Z,673.00
2024-04-05T11:57:08.754Z,670.00
2024-04-05T11:58:08.750Z,668.00
2024-04-05T11:59:08.750Z,668.00
2024-04-05T12:00:08.752Z,667.00
2024-04-05T12:01:08.828Z,665.00
2024-04-05T12:02:08.879Z,663.00
2024-04-05T12:03:08.848Z,662.00
2024-04-05T12:04:08.875Z,663.00
2024-04-05T12:05:08.843Z,662.00
2024-04-05T12:06:08.886Z,661.00
2024-04-05T12:07:08.845Z,658.00
2024-04-05T12:08:11.453Z,658.00
2024-04-05T12:09:08.909Z,653.00
2024-04-05T12:10:08.938Z,651.00
2024-04-05T12:11:08.949Z,652.00
2024-04-05T12:12:08.898Z,650.00
2024-04-05T12:13:08.887Z,647.00
2024-04-05T12:14:13.206Z,647.00
2024-04-05T12:15:09.899Z,647.00
2024-04-05T12:16:08.888Z,646.00
2024-04-05T12:17:08.980Z,645.00
2024-04-05T12:18:08.904Z,647.00
2024-04-05T12:19:08.907Z,643.00
2024-04-05T12:20:12.236Z,642.00
2024-04-05T12:21:08.918Z,638.00
2024-04-05T12:22:08.873Z,637.00
2024-04-05T12:23:08.948Z,637.00
2024-04-05T12:24:08.935Z,635.00
2024-04-05T12:25:08.947Z,637.00
2024-04-05T12:26:10.412Z,638.00
2024-04-05T12:27:16.611Z,637.00
2024-04-05T12:28:09.937Z,635.00